SWR6EB LSZH-LEPA
Flight info
| Callsign | SWR6EB |
|---|---|
| Flight time | 1h 30m |
| Altitude | 36000 |
| Route | VEBI1X VEBIT BERSU VEVAR PERUS PADKO UM984 DIVKO UN852 VATIR N852 VERSO L129 LUNIK LUNI2P |
| Aircraft | A/M-L/5000 |
Departure
| Time | 2026-04-26 10:18 |
|---|---|
| Airport | Zürich Airport (LSZH) |
Arrival
| Time | 2026-04-26 11:49 |
|---|---|
| Airport | Palma de Mallorca Airport (LEPA) |
| Time | Latitude | Longitude | Altitude | Speed | Heading |
|---|---|---|---|---|---|
| 2026-04-26 10:04 | 47.45418 | 8.56002 | 1400 ft | 0 kts | 186° |
| 2026-04-26 10:14 | 47.45435 | 8.56005 | 1410 ft | 3 kts | 186° |
| 2026-04-26 10:14 | 47.45454 | 8.56008 | 1404 ft | 3 kts | 186° |
| 2026-04-26 10:14 | 47.45467 | 8.56012 | 1410 ft | 3 kts | 187° |
| 2026-04-26 10:14 | 47.45484 | 8.56005 | 1408 ft | 3 kts | 126° |
| 2026-04-26 10:15 | 47.45488 | 8.55992 | 1405 ft | 0 kts | 94° |
| 2026-04-26 10:15 | 47.45488 | 8.56000 | 1406 ft | 1 kts | 95° |
| 2026-04-26 10:15 | 47.45488 | 8.56001 | 1406 ft | 0 kts | 95° |
| 2026-04-26 10:16 | 47.45483 | 8.56097 | 1400 ft | 17 kts | 97° |
| 2026-04-26 10:16 | 47.45491 | 8.56237 | 1407 ft | 13 kts | 56° |
| 2026-04-26 10:16 | 47.45545 | 8.56317 | 1405 ft | 13 kts | 53° |
| 2026-04-26 10:16 | 47.45594 | 8.56519 | 1402 ft | 23 kts | 97° |
| 2026-04-26 10:17 | 47.45575 | 8.56760 | 1408 ft | 24 kts | 96° |
| 2026-04-26 10:17 | 47.45573 | 8.56985 | 1404 ft | 16 kts | 57° |
| 2026-04-26 10:17 | 47.45658 | 8.56996 | 1406 ft | 14 kts | 306° |
| 2026-04-26 10:17 | 47.45696 | 8.56551 | 1400 ft | 80 kts | 277° |
| 2026-04-26 10:18 | 47.45785 | 8.55362 | 1399 ft | 155 kts | 276° |
| 2026-04-26 10:18 | 47.45924 | 8.53544 | 1704 ft | 182 kts | 278° |
| 2026-04-26 10:18 | 47.46084 | 8.51803 | 2792 ft | 171 kts | 280° |
| 2026-04-26 10:18 | 47.46218 | 8.49910 | 3260 ft | 200 kts | 277° |
| 2026-04-26 10:19 | 47.46052 | 8.47734 | 3570 ft | 230 kts | 247° |
| 2026-04-26 10:19 | 47.44935 | 8.45913 | 4094 ft | 250 kts | 213° |
| 2026-04-26 10:19 | 47.43477 | 8.44334 | 4928 ft | 278 kts | 225° |
| 2026-04-26 10:19 | 47.42244 | 8.41947 | 5581 ft | 302 kts | 234° |
| 2026-04-26 10:20 | 47.41059 | 8.39342 | 6825 ft | 306 kts | 236° |
| 2026-04-26 10:20 | 47.40272 | 8.37602 | 7697 ft | 309 kts | 236° |
| 2026-04-26 10:20 | 47.38697 | 8.33986 | 9374 ft | 317 kts | 241° |
| 2026-04-26 10:20 | 47.37665 | 8.31122 | 10551 ft | 323 kts | 244° |
| 2026-04-26 10:21 | 47.36628 | 8.28148 | 11681 ft | 328 kts | 243° |
| 2026-04-26 10:21 | 47.35575 | 8.25142 | 12871 ft | 331 kts | 244° |
| 2026-04-26 10:21 | 47.34509 | 8.22108 | 14038 ft | 335 kts | 244° |
| 2026-04-26 10:21 | 47.33427 | 8.19044 | 15059 ft | 339 kts | 244° |
| 2026-04-26 10:22 | 47.32330 | 8.15947 | 16121 ft | 341 kts | 243° |
| 2026-04-26 10:22 | 47.31222 | 8.12829 | 17174 ft | 345 kts | 244° |
| 2026-04-26 10:22 | 47.30103 | 8.09679 | 18188 ft | 349 kts | 243° |
| 2026-04-26 10:22 | 47.28966 | 8.06481 | 19012 ft | 356 kts | 243° |
| 2026-04-26 10:23 | 47.27806 | 8.03227 | 19810 ft | 360 kts | 243° |
| 2026-04-26 10:23 | 47.26724 | 7.99942 | 20677 ft | 363 kts | 242° |
| 2026-04-26 10:23 | 47.25108 | 7.97073 | 21486 ft | 370 kts | 220° |
| 2026-04-26 10:23 | 47.22824 | 7.95287 | 22272 ft | 378 kts | 198° |
| 2026-04-26 10:24 | 47.20212 | 7.94569 | 23037 ft | 385 kts | 188° |
| 2026-04-26 10:24 | 47.17531 | 7.94215 | 23839 ft | 389 kts | 187° |
| 2026-04-26 10:24 | 47.14829 | 7.93769 | 24465 ft | 391 kts | 190° |
| 2026-04-26 10:24 | 47.12130 | 7.93122 | 25081 ft | 394 kts | 192° |
| 2026-04-26 10:25 | 47.09432 | 7.92303 | 25651 ft | 398 kts | 194° |
| 2026-04-26 10:25 | 47.06725 | 7.91334 | 26216 ft | 402 kts | 196° |
| 2026-04-26 10:25 | 47.04014 | 7.90264 | 26802 ft | 404 kts | 197° |
| 2026-04-26 10:25 | 47.01306 | 7.89142 | 27371 ft | 406 kts | 198° |
| 2026-04-26 10:26 | 46.98579 | 7.87991 | 27952 ft | 409 kts | 198° |
| 2026-04-26 10:26 | 46.95840 | 7.86833 | 28459 ft | 411 kts | 198° |
| 2026-04-26 10:26 | 46.93080 | 7.85674 | 28979 ft | 414 kts | 198° |
| 2026-04-26 10:26 | 46.90333 | 7.84528 | 29475 ft | 417 kts | 198° |
| 2026-04-26 10:27 | 46.87528 | 7.83366 | 29952 ft | 420 kts | 198° |
| 2026-04-26 10:27 | 46.84706 | 7.82203 | 30399 ft | 422 kts | 198° |
| 2026-04-26 10:27 | 46.81873 | 7.81041 | 30843 ft | 423 kts | 198° |
| 2026-04-26 10:27 | 46.79042 | 7.79882 | 31416 ft | 420 kts | 198° |
| 2026-04-26 10:28 | 46.76231 | 7.78733 | 32014 ft | 417 kts | 198° |
| 2026-04-26 10:28 | 46.73442 | 7.77593 | 32556 ft | 415 kts | 198° |
| 2026-04-26 10:28 | 46.70661 | 7.76456 | 33064 ft | 414 kts | 198° |
| 2026-04-26 10:28 | 46.67925 | 7.75339 | 33579 ft | 412 kts | 198° |
| 2026-04-26 10:29 | 46.65165 | 7.74212 | 34076 ft | 411 kts | 198° |
| 2026-04-26 10:29 | 46.62418 | 7.73092 | 34505 ft | 410 kts | 198° |
| 2026-04-26 10:29 | 46.59667 | 7.71971 | 34870 ft | 410 kts | 198° |
| 2026-04-26 10:29 | 46.56910 | 7.70849 | 35203 ft | 411 kts | 198° |
| 2026-04-26 10:30 | 46.54160 | 7.69731 | 35544 ft | 411 kts | 198° |
| 2026-04-26 10:30 | 46.51403 | 7.68612 | 35904 ft | 411 kts | 198° |
| 2026-04-26 10:30 | 46.48650 | 7.67495 | 36246 ft | 411 kts | 198° |
| 2026-04-26 10:30 | 46.45894 | 7.66379 | 36575 ft | 411 kts | 198° |
| 2026-04-26 10:31 | 46.43164 | 7.65274 | 36874 ft | 412 kts | 198° |
| 2026-04-26 10:31 | 46.40400 | 7.64156 | 37177 ft | 412 kts | 198° |
| 2026-04-26 10:31 | 46.37629 | 7.63037 | 37489 ft | 413 kts | 198° |
| 2026-04-26 10:31 | 46.34866 | 7.61923 | 37802 ft | 413 kts | 198° |
| 2026-04-26 10:32 | 46.32099 | 7.60807 | 38064 ft | 413 kts | 198° |
| 2026-04-26 10:32 | 46.29322 | 7.59687 | 38172 ft | 414 kts | 198° |
| 2026-04-26 10:32 | 46.23765 | 7.57455 | 38176 ft | 414 kts | 198° |
| 2026-04-26 10:33 | 46.18206 | 7.55227 | 38181 ft | 414 kts | 198° |
| 2026-04-26 10:33 | 46.12682 | 7.53017 | 38179 ft | 414 kts | 198° |
| 2026-04-26 10:34 | 46.07118 | 7.50795 | 38171 ft | 414 kts | 198° |
| 2026-04-26 10:34 | 46.01552 | 7.48577 | 38165 ft | 415 kts | 198° |
| 2026-04-26 10:35 | 45.95969 | 7.46359 | 38148 ft | 424 kts | 198° |
| 2026-04-26 10:35 | 45.90196 | 7.44060 | 38132 ft | 438 kts | 198° |
| 2026-04-26 10:36 | 45.84268 | 7.41711 | 38132 ft | 443 kts | 198° |
| 2026-04-26 10:36 | 45.78319 | 7.39364 | 38129 ft | 443 kts | 198° |
| 2026-04-26 10:37 | 45.72377 | 7.37022 | 38119 ft | 443 kts | 198° |
| 2026-04-26 10:37 | 45.66435 | 7.34686 | 38165 ft | 442 kts | 198° |
| 2026-04-26 10:38 | 45.60527 | 7.32368 | 38159 ft | 442 kts | 198° |
| 2026-04-26 10:38 | 45.54583 | 7.30040 | 38160 ft | 442 kts | 198° |
| 2026-04-26 10:39 | 45.48640 | 7.27717 | 38157 ft | 442 kts | 198° |
| 2026-04-26 10:39 | 45.42702 | 7.25401 | 38163 ft | 442 kts | 198° |
| 2026-04-26 10:40 | 45.36760 | 7.23089 | 38179 ft | 442 kts | 198° |
| 2026-04-26 10:40 | 45.30860 | 7.20798 | 38187 ft | 442 kts | 198° |
| 2026-04-26 10:41 | 45.24922 | 7.18497 | 38204 ft | 442 kts | 198° |
| 2026-04-26 10:41 | 45.18989 | 7.16204 | 38203 ft | 442 kts | 198° |
| 2026-04-26 10:42 | 45.14007 | 7.14282 | 38204 ft | 442 kts | 198° |
| 2026-04-26 10:42 | 45.07090 | 7.11620 | 38205 ft | 443 kts | 198° |
| 2026-04-26 10:43 | 45.01133 | 7.09331 | 38181 ft | 443 kts | 198° |
| 2026-04-26 10:43 | 44.95177 | 7.07048 | 38141 ft | 444 kts | 198° |
| 2026-04-26 10:44 | 44.89215 | 7.04766 | 38133 ft | 444 kts | 198° |
| 2026-04-26 10:44 | 44.83251 | 7.02490 | 38134 ft | 444 kts | 198° |
| 2026-04-26 10:45 | 44.77627 | 6.99215 | 38123 ft | 435 kts | 216° |
| 2026-04-26 10:45 | 44.72873 | 6.94045 | 38133 ft | 435 kts | 223° |
| 2026-04-26 10:46 | 44.68267 | 6.88532 | 38139 ft | 435 kts | 222° |
| 2026-04-26 10:46 | 44.63582 | 6.83141 | 38134 ft | 436 kts | 221° |
| 2026-04-26 10:47 | 44.58819 | 6.77862 | 38131 ft | 436 kts | 220° |
| 2026-04-26 10:47 | 44.54037 | 6.72622 | 38129 ft | 436 kts | 220° |
| 2026-04-26 10:48 | 44.49246 | 6.67394 | 38124 ft | 437 kts | 220° |
| 2026-04-26 10:48 | 44.44449 | 6.62164 | 38127 ft | 437 kts | 220° |
| 2026-04-26 10:49 | 44.39685 | 6.56971 | 38119 ft | 436 kts | 220° |
| 2026-04-26 10:49 | 44.34895 | 6.51767 | 38112 ft | 435 kts | 220° |
| 2026-04-26 10:50 | 44.30918 | 6.47452 | 38110 ft | 435 kts | 220° |
| 2026-04-26 10:50 | 44.26125 | 6.42258 | 38115 ft | 436 kts | 220° |
| 2026-04-26 10:51 | 44.18922 | 6.34475 | 38113 ft | 437 kts | 220° |
| 2026-04-26 10:52 | 44.14119 | 6.29300 | 38110 ft | 437 kts | 220° |
| 2026-04-26 10:52 | 44.09306 | 6.24124 | 38115 ft | 437 kts | 220° |
| 2026-04-26 10:53 | 44.04487 | 6.18953 | 38107 ft | 437 kts | 220° |
| 2026-04-26 10:53 | 43.99672 | 6.13799 | 38110 ft | 437 kts | 220° |
| 2026-04-26 10:54 | 43.92473 | 6.06112 | 38113 ft | 437 kts | 219° |
| 2026-04-26 10:54 | 43.87638 | 6.00962 | 38117 ft | 437 kts | 219° |
| 2026-04-26 10:55 | 43.82807 | 5.95828 | 38117 ft | 438 kts | 219° |
| 2026-04-26 10:55 | 43.77974 | 5.90701 | 38111 ft | 438 kts | 219° |
| 2026-04-26 10:56 | 43.73162 | 5.85607 | 38116 ft | 438 kts | 219° |
| 2026-04-26 10:56 | 43.68320 | 5.80493 | 38113 ft | 438 kts | 219° |
| 2026-04-26 10:57 | 43.63478 | 5.75391 | 38117 ft | 438 kts | 219° |
| 2026-04-26 10:57 | 43.58631 | 5.70293 | 38122 ft | 437 kts | 219° |
| 2026-04-26 10:58 | 43.53778 | 5.65199 | 38124 ft | 438 kts | 219° |
| 2026-04-26 10:58 | 43.48930 | 5.60122 | 38117 ft | 438 kts | 219° |
| 2026-04-26 10:59 | 43.44101 | 5.55074 | 38129 ft | 438 kts | 219° |
| 2026-04-26 10:59 | 43.39250 | 5.50013 | 38131 ft | 438 kts | 219° |
| 2026-04-26 11:00 | 43.34386 | 5.44951 | 38132 ft | 438 kts | 219° |
| 2026-04-26 11:00 | 43.29527 | 5.39903 | 38131 ft | 438 kts | 219° |
| 2026-04-26 11:01 | 43.24667 | 5.34862 | 38132 ft | 437 kts | 220° |
| 2026-04-26 11:01 | 43.22511 | 5.31960 | 38137 ft | 432 kts | 236° |
| 2026-04-26 11:01 | 43.21000 | 5.28485 | 38139 ft | 430 kts | 245° |
| 2026-04-26 11:02 | 43.18780 | 5.20848 | 38136 ft | 431 kts | 251° |
| 2026-04-26 11:02 | 43.16701 | 5.13121 | 38136 ft | 432 kts | 250° |
| 2026-04-26 11:03 | 43.14442 | 5.05486 | 38140 ft | 432 kts | 248° |
| 2026-04-26 11:03 | 43.12082 | 4.97961 | 38140 ft | 432 kts | 248° |
| 2026-04-26 11:04 | 43.09675 | 4.90413 | 38140 ft | 433 kts | 247° |
| 2026-04-26 11:04 | 43.07266 | 4.82863 | 38140 ft | 433 kts | 248° |
| 2026-04-26 11:05 | 43.04266 | 4.75768 | 38142 ft | 435 kts | 225° |
| 2026-04-26 11:05 | 43.01848 | 4.73272 | 38143 ft | 438 kts | 212° |
| 2026-04-26 11:05 | 42.99156 | 4.71376 | 38141 ft | 441 kts | 207° |
| 2026-04-26 11:06 | 42.93529 | 4.67961 | 38140 ft | 443 kts | 207° |
| 2026-04-26 11:06 | 42.87982 | 4.64271 | 38142 ft | 443 kts | 209° |
| 2026-04-26 11:07 | 42.82549 | 4.60289 | 38144 ft | 443 kts | 211° |
| 2026-04-26 11:07 | 42.77151 | 4.56202 | 38140 ft | 443 kts | 211° |
| 2026-04-26 11:08 | 42.71791 | 4.52143 | 38141 ft | 443 kts | 211° |
| 2026-04-26 11:08 | 42.66394 | 4.48082 | 38140 ft | 443 kts | 211° |
| 2026-04-26 11:09 | 42.60984 | 4.44031 | 38144 ft | 443 kts | 211° |
| 2026-04-26 11:09 | 42.55573 | 4.39988 | 38144 ft | 443 kts | 211° |
| 2026-04-26 11:10 | 42.50158 | 4.35951 | 38144 ft | 443 kts | 211° |
| 2026-04-26 11:10 | 42.44750 | 4.31926 | 38149 ft | 443 kts | 210° |
| 2026-04-26 11:11 | 42.39343 | 4.27910 | 38149 ft | 443 kts | 210° |
| 2026-04-26 11:11 | 42.33968 | 4.23925 | 38152 ft | 443 kts | 210° |
| 2026-04-26 11:12 | 42.28547 | 4.19913 | 38149 ft | 443 kts | 210° |
| 2026-04-26 11:12 | 42.23136 | 4.15918 | 38152 ft | 443 kts | 210° |
| 2026-04-26 11:13 | 42.17718 | 4.11925 | 38156 ft | 443 kts | 210° |
| 2026-04-26 11:13 | 42.12329 | 4.07964 | 38143 ft | 443 kts | 210° |
| 2026-04-26 11:14 | 42.06906 | 4.03987 | 38156 ft | 443 kts | 210° |
| 2026-04-26 11:14 | 42.01487 | 4.00021 | 38160 ft | 443 kts | 210° |
| 2026-04-26 11:15 | 41.96066 | 3.96061 | 38158 ft | 443 kts | 210° |
| 2026-04-26 11:15 | 41.90449 | 3.92691 | 38157 ft | 444 kts | 198° |
| 2026-04-26 11:16 | 41.84533 | 3.90420 | 38160 ft | 445 kts | 197° |
| 2026-04-26 11:16 | 41.78558 | 3.88214 | 38166 ft | 445 kts | 197° |
| 2026-04-26 11:17 | 41.72585 | 3.86003 | 38162 ft | 445 kts | 197° |
| 2026-04-26 11:17 | 41.66622 | 3.83795 | 38158 ft | 444 kts | 197° |
| 2026-04-26 11:18 | 41.60689 | 3.81601 | 38159 ft | 444 kts | 197° |
| 2026-04-26 11:18 | 41.54729 | 3.79401 | 38162 ft | 445 kts | 197° |
| 2026-04-26 11:19 | 41.48761 | 3.77201 | 38170 ft | 445 kts | 197° |
| 2026-04-26 11:19 | 41.45789 | 3.76107 | 37826 ft | 441 kts | 196° |
| 2026-04-26 11:19 | 41.42825 | 3.75018 | 36981 ft | 442 kts | 196° |
| 2026-04-26 11:20 | 41.39860 | 3.73928 | 36198 ft | 442 kts | 196° |
| 2026-04-26 11:20 | 41.37900 | 3.73209 | 35741 ft | 440 kts | 196° |
| 2026-04-26 11:20 | 41.33975 | 3.71770 | 34927 ft | 435 kts | 196° |
| 2026-04-26 11:20 | 41.31070 | 3.70707 | 34351 ft | 431 kts | 196° |
| 2026-04-26 11:21 | 41.28196 | 3.69655 | 33720 ft | 426 kts | 196° |
| 2026-04-26 11:21 | 41.25343 | 3.68612 | 33041 ft | 423 kts | 195° |
| 2026-04-26 11:21 | 41.22517 | 3.67579 | 32403 ft | 420 kts | 196° |
| 2026-04-26 11:21 | 41.19714 | 3.66557 | 31806 ft | 415 kts | 196° |
| 2026-04-26 11:22 | 41.16941 | 3.65546 | 31213 ft | 412 kts | 196° |
| 2026-04-26 11:22 | 41.14225 | 3.64556 | 30624 ft | 409 kts | 196° |
| 2026-04-26 11:22 | 41.11496 | 3.63563 | 30013 ft | 405 kts | 196° |
| 2026-04-26 11:22 | 41.08788 | 3.62578 | 29352 ft | 402 kts | 196° |
| 2026-04-26 11:23 | 41.06098 | 3.61600 | 28700 ft | 399 kts | 195° |
| 2026-04-26 11:23 | 41.03421 | 3.60628 | 28042 ft | 396 kts | 195° |
| 2026-04-26 11:23 | 41.00770 | 3.59666 | 27437 ft | 393 kts | 195° |
| 2026-04-26 11:23 | 40.98125 | 3.58707 | 26578 ft | 396 kts | 195° |
| 2026-04-26 11:24 | 40.95433 | 3.57732 | 25588 ft | 404 kts | 195° |
| 2026-04-26 11:24 | 40.92704 | 3.56744 | 24630 ft | 410 kts | 195° |
| 2026-04-26 11:24 | 40.89932 | 3.55742 | 23696 ft | 415 kts | 195° |
| 2026-04-26 11:24 | 40.87137 | 3.54733 | 22607 ft | 418 kts | 195° |
| 2026-04-26 11:25 | 40.84326 | 3.53718 | 21564 ft | 419 kts | 195° |
| 2026-04-26 11:25 | 40.81547 | 3.52716 | 20565 ft | 419 kts | 195° |
| 2026-04-26 11:25 | 40.78737 | 3.51704 | 19590 ft | 418 kts | 195° |
| 2026-04-26 11:25 | 40.75933 | 3.50695 | 18638 ft | 416 kts | 195° |
| 2026-04-26 11:26 | 40.73144 | 3.49691 | 17620 ft | 413 kts | 195° |
| 2026-04-26 11:26 | 40.70375 | 3.48696 | 16592 ft | 411 kts | 194° |
| 2026-04-26 11:26 | 40.67625 | 3.47709 | 15611 ft | 408 kts | 195° |
| 2026-04-26 11:26 | 40.64897 | 3.46730 | 14652 ft | 405 kts | 194° |
| 2026-04-26 11:27 | 40.62179 | 3.45756 | 13683 ft | 402 kts | 194° |
| 2026-04-26 11:27 | 40.59533 | 3.44808 | 12782 ft | 382 kts | 194° |
| 2026-04-26 11:27 | 40.57087 | 3.43931 | 12165 ft | 355 kts | 194° |
| 2026-04-26 11:27 | 40.54764 | 3.43100 | 11540 ft | 334 kts | 194° |
| 2026-04-26 11:28 | 40.52578 | 3.42318 | 10924 ft | 319 kts | 194° |
| 2026-04-26 11:28 | 40.50457 | 3.41561 | 10424 ft | 314 kts | 194° |
| 2026-04-26 11:28 | 40.48355 | 3.40813 | 10037 ft | 311 kts | 194° |
| 2026-04-26 11:28 | 40.46281 | 3.40079 | 9153 ft | 306 kts | 194° |
| 2026-04-26 11:29 | 40.44233 | 3.39345 | 8502 ft | 304 kts | 192° |
| 2026-04-26 11:29 | 40.42147 | 3.39232 | 8223 ft | 300 kts | 173° |
| 2026-04-26 11:29 | 40.40063 | 3.39381 | 8161 ft | 299 kts | 175° |
| 2026-04-26 11:29 | 40.38015 | 3.39527 | 8167 ft | 298 kts | 175° |
| 2026-04-26 11:30 | 40.35948 | 3.39670 | 8177 ft | 297 kts | 175° |
| 2026-04-26 11:30 | 40.34553 | 3.39761 | 8174 ft | 297 kts | 175° |
| 2026-04-26 11:30 | 40.31764 | 3.39935 | 8171 ft | 317 kts | 175° |
| 2026-04-26 11:30 | 40.29506 | 3.40072 | 8164 ft | 328 kts | 175° |
| 2026-04-26 11:31 | 40.27213 | 3.40204 | 8176 ft | 330 kts | 175° |
| 2026-04-26 11:31 | 40.24909 | 3.40335 | 8173 ft | 331 kts | 175° |
| 2026-04-26 11:31 | 40.22611 | 3.40466 | 8173 ft | 331 kts | 175° |
| 2026-04-26 11:31 | 40.20346 | 3.40594 | 8168 ft | 331 kts | 175° |
| 2026-04-26 11:32 | 40.18046 | 3.40725 | 8168 ft | 330 kts | 176° |
| 2026-04-26 11:32 | 40.15776 | 3.40853 | 8174 ft | 317 kts | 176° |
| 2026-04-26 11:32 | 40.13663 | 3.40970 | 8183 ft | 292 kts | 176° |
| 2026-04-26 11:32 | 40.11666 | 3.41082 | 8169 ft | 285 kts | 176° |
| 2026-04-26 11:33 | 40.09684 | 3.41196 | 8176 ft | 285 kts | 175° |
| 2026-04-26 11:33 | 40.07702 | 3.41310 | 8178 ft | 285 kts | 176° |
| 2026-04-26 11:33 | 40.05719 | 3.41423 | 8168 ft | 285 kts | 176° |
| 2026-04-26 11:33 | 40.03729 | 3.41536 | 8177 ft | 285 kts | 176° |
| 2026-04-26 11:34 | 40.01743 | 3.41648 | 8176 ft | 285 kts | 176° |
| 2026-04-26 11:34 | 39.99759 | 3.41760 | 8165 ft | 285 kts | 176° |
| 2026-04-26 11:34 | 39.97800 | 3.41870 | 8168 ft | 285 kts | 176° |
| 2026-04-26 11:34 | 39.95816 | 3.41982 | 8178 ft | 285 kts | 176° |
| 2026-04-26 11:35 | 39.93839 | 3.42092 | 8178 ft | 284 kts | 176° |
| 2026-04-26 11:35 | 39.91859 | 3.42203 | 8178 ft | 284 kts | 176° |
| 2026-04-26 11:35 | 39.89878 | 3.42314 | 8168 ft | 284 kts | 176° |
| 2026-04-26 11:35 | 39.88571 | 3.42387 | 8178 ft | 284 kts | 176° |
| 2026-04-26 11:36 | 39.85917 | 3.42535 | 8181 ft | 284 kts | 176° |
| 2026-04-26 11:36 | 39.83939 | 3.42646 | 8152 ft | 283 kts | 176° |
| 2026-04-26 11:36 | 39.82000 | 3.42754 | 7716 ft | 281 kts | 176° |
| 2026-04-26 11:36 | 39.80049 | 3.42862 | 7187 ft | 280 kts | 176° |
| 2026-04-26 11:37 | 39.78106 | 3.42970 | 6683 ft | 278 kts | 175° |
| 2026-04-26 11:37 | 39.76167 | 3.43079 | 6162 ft | 276 kts | 175° |
| 2026-04-26 11:37 | 39.74257 | 3.43186 | 5699 ft | 273 kts | 175° |
| 2026-04-26 11:37 | 39.72371 | 3.43288 | 5249 ft | 269 kts | 175° |
| 2026-04-26 11:38 | 39.70520 | 3.43246 | 4772 ft | 270 kts | 190° |
| 2026-04-26 11:38 | 39.68901 | 3.42065 | 4544 ft | 271 kts | 226° |
| 2026-04-26 11:38 | 39.68080 | 3.39880 | 4522 ft | 275 kts | 261° |
| 2026-04-26 11:38 | 39.68115 | 3.37395 | 4522 ft | 277 kts | 275° |
| 2026-04-26 11:39 | 39.68225 | 3.35743 | 4513 ft | 278 kts | 274° |
| 2026-04-26 11:39 | 39.68290 | 3.33234 | 4507 ft | 278 kts | 269° |
| 2026-04-26 11:39 | 39.68224 | 3.30724 | 4513 ft | 278 kts | 266° |
| 2026-04-26 11:39 | 39.68009 | 3.27385 | 4524 ft | 278 kts | 264° |
| 2026-04-26 11:40 | 39.67872 | 3.25736 | 4513 ft | 277 kts | 263° |
| 2026-04-26 11:40 | 39.67645 | 3.23251 | 4494 ft | 277 kts | 262° |
| 2026-04-26 11:40 | 39.67405 | 3.20777 | 4159 ft | 274 kts | 262° |
| 2026-04-26 11:40 | 39.67159 | 3.18326 | 4024 ft | 275 kts | 262° |
| 2026-04-26 11:41 | 39.66908 | 3.15870 | 4009 ft | 275 kts | 262° |
| 2026-04-26 11:42 | 39.65124 | 2.98878 | 2936 ft | 260 kts | 261° |
| 2026-04-26 11:43 | 39.64883 | 2.96661 | 2776 ft | 236 kts | 259° |
| 2026-04-26 11:43 | 39.64286 | 2.94719 | 2549 ft | 232 kts | 240° |
| 2026-04-26 11:43 | 39.63471 | 2.92912 | 2525 ft | 228 kts | 237° |
| 2026-04-26 11:43 | 39.62686 | 2.91260 | 2502 ft | 206 kts | 237° |
| 2026-04-26 11:44 | 39.61968 | 2.89760 | 2502 ft | 191 kts | 238° |
| 2026-04-26 11:44 | 39.61281 | 2.88304 | 2521 ft | 184 kts | 236° |
| 2026-04-26 11:44 | 39.60627 | 2.86934 | 2183 ft | 176 kts | 237° |
| 2026-04-26 11:44 | 39.59924 | 2.85649 | 1860 ft | 174 kts | 220° |
| 2026-04-26 11:45 | 39.58820 | 2.85121 | 1799 ft | 172 kts | 176° |
| 2026-04-26 11:45 | 39.57747 | 2.85710 | 1807 ft | 171 kts | 135° |
| 2026-04-26 11:45 | 39.57278 | 2.87086 | 1799 ft | 171 kts | 93° |
| 2026-04-26 11:45 | 39.57666 | 2.88522 | 1796 ft | 175 kts | 51° |
| 2026-04-26 11:46 | 39.58708 | 2.89263 | 1797 ft | 178 kts | 8° |
| 2026-04-26 11:46 | 39.59897 | 2.88928 | 1802 ft | 179 kts | 327° |
| 2026-04-26 11:46 | 39.60625 | 2.87658 | 1792 ft | 178 kts | 285° |
| 2026-04-26 11:46 | 39.60546 | 2.86086 | 1809 ft | 177 kts | 249° |
| 2026-04-26 11:47 | 39.59984 | 2.84691 | 1770 ft | 171 kts | 232° |
| 2026-04-26 11:47 | 39.59172 | 2.83621 | 1369 ft | 165 kts | 224° |
| 2026-04-26 11:47 | 39.58481 | 2.82453 | 1135 ft | 164 kts | 234° |
| 2026-04-26 11:47 | 39.57919 | 2.81180 | 977 ft | 160 kts | 237° |
| 2026-04-26 11:48 | 39.57318 | 2.79954 | 820 ft | 163 kts | 237° |
| 2026-04-26 11:48 | 39.56737 | 2.78705 | 502 ft | 164 kts | 238° |
| 2026-04-26 11:48 | 39.56154 | 2.77462 | 297 ft | 159 kts | 237° |
| 2026-04-26 11:48 | 39.55578 | 2.76252 | 96 ft | 154 kts | 238° |
| 2026-04-26 11:49 | 39.55065 | 2.75183 | 31 ft | 101 kts | 239° |
| 2026-04-26 11:49 | 39.54854 | 2.74706 | 33 ft | 49 kts | 241° |
| 2026-04-26 11:49 | 39.54802 | 2.74344 | 35 ft | 22 kts | 268° |
| 2026-04-26 11:49 | 39.54823 | 2.74148 | 36 ft | 23 kts | 304° |
| 2026-04-26 11:50 | 39.54938 | 2.74029 | 36 ft | 13 kts | 305° |
| 2026-04-26 11:50 | 39.54942 | 2.73947 | 36 ft | 15 kts | 287° |
| 2026-04-26 11:50 | 39.55076 | 2.73822 | 36 ft | 26 kts | 327° |
| 2026-04-26 11:50 | 39.55175 | 2.73696 | 37 ft | 11 kts | 255° |
| 2026-04-26 11:51 | 39.55201 | 2.73630 | 37 ft | 17 kts | 323° |
| 2026-04-26 11:51 | 39.55377 | 2.73479 | 36 ft | 25 kts | 330° |
| 2026-04-26 11:51 | 39.55412 | 2.73386 | 34 ft | 13 kts | 240° |
| 2026-04-26 11:51 | 39.55336 | 2.73223 | 36 ft | 25 kts | 238° |
| 2026-04-26 11:52 | 39.55276 | 2.73056 | 35 ft | 14 kts | 284° |
| 2026-04-26 11:52 | 39.55317 | 2.72965 | 34 ft | 19 kts | 269° |
| 2026-04-26 11:52 | 39.55257 | 2.72801 | 33 ft | 21 kts | 236° |
| 2026-04-26 11:52 | 39.55177 | 2.72637 | 33 ft | 22 kts | 239° |
| 2026-04-26 11:53 | 39.55094 | 2.72518 | 32 ft | 11 kts | 167° |
| 2026-04-26 11:53 | 39.55002 | 2.72505 | 32 ft | 17 kts | 245° |
| 2026-04-26 11:53 | 39.54943 | 2.72398 | 32 ft | 9 kts | 197° |
| 2026-04-26 11:54 | 39.54903 | 2.72410 | 32 ft | 0 kts | 157° |